»·PEaware :: N384BW 11CL-46CA

N384BW :: 11CL-46CA

FLIGHT INFORMATION

Flight Status: Arrived
Operator: Privately registered:
United States
More flights under this callsign
Pilot: Ben W. (5837)
Aircraft: CESSNA 207 TURBO STATIONAIR
(C207)
More flights by this aircraft type
Origin: 11CL Hansen
United States
Destination: 46CA Rancho Vallecito
United States
More flights between these airports :: More routes between these airports
Route:
File this flight plan on PilotEdge
Remarks:
Altitude:
(Current/Filed)
7,500ft
Speed:
(Current/Filed)
150kts
Departed: 01-Mar-15 11:22 AM
Arrived: 01-Mar-15 12:32 PM
Distance/Time
Traveled:
117nm/1:10
Distance/Time
To Go:
Arrived

Flight Plot

Page will automatically refresh every two minutes.


Map Options




Map Legend


Flown Route
Filed Route
Departure Airport
Arrival Airport
Navaid (VOR, NDB)
Fix

Horizontal Profiles

Position Reports

Time Latitude Longitude Heading Altitude Ground
Speed
01-Mar-15 11:06 34.630804 -117.644071 260 2888ft 0kts
01-Mar-15 11:07 34.630804 -117.644071 260 2888ft 0kts
01-Mar-15 11:08 34.630804 -117.644071 260 2888ft 0kts
01-Mar-15 11:09 34.630804 -117.644071 260 2888ft 0kts
01-Mar-15 11:10 34.630804 -117.644071 260 2888ft 0kts
01-Mar-15 11:11 34.630804 -117.644071 260 2889ft 0kts
01-Mar-15 11:12 34.630804 -117.644071 260 2888ft 0kts
01-Mar-15 11:13 34.630804 -117.644071 260 2888ft 0kts
01-Mar-15 11:14 34.630804 -117.644071 260 2888ft 0kts
01-Mar-15 11:15 34.630804 -117.644071 260 2888ft 0kts
01-Mar-15 11:16 34.630161 -117.651316 263 2889ft 71kts
01-Mar-15 11:17 34.628244 -117.681219 282 3609ft 91kts
01-Mar-15 11:18 34.640858 -117.669419 84 4302ft 103kts
01-Mar-15 11:19 34.643491 -117.633871 83 5043ft 106kts
01-Mar-15 11:20 34.636875 -117.599417 105 5724ft 103kts
01-Mar-15 11:21 34.626622 -117.567113 110 6315ft 102kts
01-Mar-15 11:22 34.618171 -117.534130 105 6877ft 102kts
01-Mar-15 11:23 34.611520 -117.500537 102 7414ft 102kts
01-Mar-15 11:24 34.605006 -117.461690 101 7513ft 134kts
01-Mar-15 11:25 34.597827 -117.414438 100 7510ft 146kts
01-Mar-15 11:26 34.590765 -117.365263 99 7509ft 148kts
01-Mar-15 11:27 34.584054 -117.315739 99 7509ft 148kts
01-Mar-15 11:28 34.577348 -117.266243 99 7509ft 148kts
01-Mar-15 11:29 34.570634 -117.216757 99 7509ft 148kts
01-Mar-15 11:30 34.563901 -117.167274 99 7512ft 149kts
01-Mar-15 11:31 34.557117 -117.117598 99 7509ft 149kts
01-Mar-15 11:32 34.550305 -117.068049 98 7510ft 148kts
01-Mar-15 11:33 34.543490 -117.018483 97 7521ft 149kts
01-Mar-15 11:34 34.536744 -116.969481 96 7500ft 146kts
01-Mar-15 11:35 34.530017 -116.920774 96 7525ft 147kts
01-Mar-15 11:36 34.523341 -116.872485 96 7509ft 148kts
01-Mar-15 11:37 34.516499 -116.823266 97 7509ft 148kts
01-Mar-15 11:38 34.509084 -116.773971 97 7511ft 149kts
01-Mar-15 11:39 34.500077 -116.724629 100 7505ft 150kts
01-Mar-15 11:40 34.488766 -116.676537 104 7512ft 150kts
01-Mar-15 11:41 34.457959 -116.646175 161 7510ft 158kts
01-Mar-15 11:42 34.421461 -116.632296 161 7538ft 157kts
01-Mar-15 11:43 34.379403 -116.616475 162 7523ft 159kts
01-Mar-15 11:44 34.337306 -116.600801 164 7541ft 158kts
01-Mar-15 11:45 34.296939 -116.585967 161 7521ft 146kts
01-Mar-15 11:46 34.259033 -116.571964 163 7568ft 139kts
01-Mar-15 11:47 34.221040 -116.558016 164 7544ft 143kts
01-Mar-15 11:48 34.182898 -116.544049 164 7599ft 144kts
01-Mar-15 11:49 34.142284 -116.529204 164 7216ft 155kts
01-Mar-15 11:50 34.103062 -116.514849 164 7005ft 150kts
01-Mar-15 11:51 34.068498 -116.502205 164 6538ft 156kts
01-Mar-15 11:52 34.026785 -116.486952 164 5955ft 157kts
01-Mar-15 11:53 33.984765 -116.471588 164 5527ft 156kts
01-Mar-15 11:54 33.944438 -116.456844 164 5513ft 150kts
01-Mar-15 11:55 33.905747 -116.438904 153 5511ft 148kts
01-Mar-15 11:56 33.871003 -116.411870 145 5512ft 149kts
01-Mar-15 11:57 33.838268 -116.381007 142 5509ft 150kts
01-Mar-15 11:58 33.806227 -116.348476 140 5506ft 151kts
01-Mar-15 11:59 33.774305 -116.315120 139 5503ft 152kts
01-Mar-15 12:00 33.742399 -116.281428 138 5499ft 153kts
01-Mar-15 12:01 33.710407 -116.247507 138 5495ft 152kts
01-Mar-15 12:02 33.678749 -116.213896 138 5492ft 152kts
01-Mar-15 12:03 33.646930 -116.180530 139 5490ft 151kts
01-Mar-15 12:04 33.612492 -116.154857 179 5490ft 150kts
01-Mar-15 12:05 33.570641 -116.156214 180 5490ft 151kts
01-Mar-15 12:06 33.528704 -116.156356 179 5490ft 151kts
01-Mar-15 12:07 33.486628 -116.155676 178 5490ft 151kts
01-Mar-15 12:08 33.446515 -116.154703 178 5490ft 151kts
01-Mar-15 12:09 33.410846 -116.153739 178 5490ft 151kts
01-Mar-15 12:10 33.369011 -116.152549 178 5501ft 151kts
01-Mar-15 12:11 33.334054 -116.151526 178 5489ft 151kts
01-Mar-15 12:12 33.291708 -116.150303 178 5113ft 152kts
01-Mar-15 12:13 33.245008 -116.148903 178 4463ft 157kts
01-Mar-15 12:14 33.205076 -116.147715 178 3918ft 158kts
01-Mar-15 12:15 33.161360 -116.146417 178 3491ft 150kts
01-Mar-15 12:16 33.121560 -116.145176 180 3498ft 142kts
01-Mar-15 12:17 33.081892 -116.144026 180 3500ft 147kts
01-Mar-15 12:18 33.037434 -116.142744 179 3006ft 163kts
01-Mar-15 12:19 32.993924 -116.141450 179 2996ft 153kts
01-Mar-15 12:20 32.971239 -116.172066 267 2921ft 150kts
01-Mar-15 12:21 32.968288 -116.222452 267 2716ft 153kts
01-Mar-15 12:22 32.964694 -116.272712 268 2575ft 146kts
01-Mar-15 12:23 32.961101 -116.319383 269 2579ft 127kts
01-Mar-15 12:24 32.960569 -116.355404 271 2468ft 103kts
01-Mar-15 12:25 32.963810 -116.388658 286 2072ft 92kts
01-Mar-15 12:26 32.971382 -116.410848 252 1683ft 16kts
01-Mar-15 12:27 32.970928 -116.411198 40 1684ft 0kts
01-Mar-15 12:28 32.970928 -116.411198 40 1684ft 0kts
01-Mar-15 12:29 32.970928 -116.411198 40 1684ft 0kts
01-Mar-15 12:30 32.970928 -116.411198 40 1684ft 0kts
01-Mar-15 12:31 32.970928 -116.411198 40 1684ft 0kts
01-Mar-15 12:32 32.970928 -116.411198 40 1684ft 0kts
01-Mar-15 12:33 32.970928 -116.411198 40 1684ft 0kts
01-Mar-15 12:34 32.970928 -116.411198 40 1684ft 0kts
01-Mar-15 12:35 32.970928 -116.411198 40 1684ft 0kts
01-Mar-15 12:36 32.970928 -116.411198 40 1684ft 0kts
01-Mar-15 12:37 32.970928 -116.411198 40 1684ft 0kts
01-Mar-15 12:38 32.970928 -116.411198 40 1684ft 0kts
01-Mar-15 12:39 32.970928 -116.411198 40 1684ft 0kts
01-Mar-15 12:40 32.970928 -116.411198 40 1684ft 0kts

Navigation Log

Ident Type
Flight plan parsing failed, navigation log unavailable